createdAt,value
2022-10-26T00:00:54.385Z,71.40
2022-10-26T00:03:22.488Z,71.63
2022-10-26T00:05:50.433Z,70.77
2022-10-26T00:08:18.448Z,69.47
2022-10-26T00:10:46.352Z,69.27
2022-10-26T00:13:14.571Z,69.93
2022-10-26T00:15:43.103Z,72.07
2022-10-26T00:18:12.548Z,73.10
2022-10-26T00:20:40.566Z,73.90
2022-10-26T00:23:08.628Z,72.70
2022-10-26T00:25:36.595Z,73.17
2022-10-26T00:28:04.785Z,74.20
2022-10-26T00:30:32.727Z,75.30
2022-10-26T00:33:00.750Z,73.57
2022-10-26T00:35:44.993Z,75.77
2022-10-26T00:38:13.580Z,77.53
2022-10-26T00:40:42.085Z,79.27
2022-10-26T00:43:17.120Z,80.03
2022-10-26T00:45:46.625Z,81.57
2022-10-26T00:48:23.094Z,81.20
2022-10-26T00:50:54.689Z,83.13
2022-10-26T00:53:22.716Z,80.90
2022-10-26T00:55:53.665Z,82.10
2022-10-26T00:58:24.028Z,81.07
2022-10-26T01:00:52.808Z,81.47
2022-10-26T01:03:21.765Z,78.30
2022-10-26T01:05:54.984Z,81.00
2022-10-26T01:08:23.302Z,80.13
2022-10-26T01:10:51.885Z,79.27
2022-10-26T01:13:20.581Z,78.73
2022-10-26T01:15:54.434Z,78.53
2022-10-26T01:18:29.915Z,78.80
2022-10-26T01:21:24.941Z,76.30
2022-10-26T01:24:10.486Z,76.07
2022-10-26T01:27:02.735Z,75.20
2022-10-26T01:29:55.682Z,74.30
2022-10-26T01:32:32.068Z,75.30
2022-10-26T01:35:10.063Z,75.00
2022-10-26T01:37:43.095Z,75.03
2022-10-26T01:40:17.858Z,72.47
2022-10-26T01:42:52.568Z,72.00
2022-10-26T01:45:20.950Z,71.17
2022-10-26T01:47:51.331Z,69.83
2022-10-26T01:50:21.016Z,71.10
2022-10-26T01:52:51.560Z,67.87
2022-10-26T01:55:45.919Z,67.30
2022-10-26T01:58:33.386Z,67.23
2022-10-26T02:01:15.781Z,65.67
2022-10-26T02:03:51.976Z,66.83
2022-10-26T02:06:27.407Z,66.80
2022-10-26T02:09:07.667Z,67.53
2022-10-26T02:11:41.418Z,65.37
2022-10-26T02:14:19.614Z,63.73
2022-10-26T02:16:56.416Z,63.57
2022-10-26T02:19:35.173Z,60.47
2022-10-26T02:22:12.346Z,62.03
2022-10-26T02:24:42.498Z,60.90
2022-10-26T02:27:17.468Z,61.20
2022-10-26T02:29:46.486Z,62.67
2022-10-26T02:32:15.592Z,63.23
2022-10-26T02:34:47.256Z,64.17
2022-10-26T02:37:19.479Z,61.20
2022-10-26T02:39:49.249Z,62.30
2022-10-26T02:42:19.432Z,62.33
2022-10-26T02:44:51.514Z,61.47
2022-10-26T02:47:20.785Z,58.57
2022-10-26T02:49:50.492Z,61.27
2022-10-26T02:52:25.234Z,57.97
2022-10-26T02:54:58.030Z,58.27
2022-10-26T02:57:32.885Z,59.67
2022-10-26T03:00:01.753Z,58.77
2022-10-26T03:02:30.781Z,58.97
2022-10-26T03:05:08.814Z,58.70
2022-10-26T03:07:36.891Z,58.13
2022-10-26T03:10:05.299Z,57.33
2022-10-26T03:12:33.319Z,57.53
2022-10-26T03:15:01.348Z,58.37
2022-10-26T03:17:29.321Z,55.40
2022-10-26T03:19:57.492Z,57.43
2022-10-26T03:22:26.957Z,56.43
2022-10-26T03:24:55.012Z,58.87
2022-10-26T03:27:23.152Z,59.77
2022-10-26T03:29:51.281Z,61.23
2022-10-26T03:32:19.257Z,63.87
2022-10-26T03:34:47.369Z,62.60
2022-10-26T03:37:15.400Z,63.73
2022-10-26T03:39:44.730Z,65.47
2022-10-26T03:42:12.695Z,67.13
2022-10-26T03:44:40.615Z,66.43
2022-10-26T03:47:08.631Z,67.87
2022-10-26T03:49:37.103Z,66.97
2022-10-26T03:52:05.739Z,66.13
2022-10-26T03:54:33.699Z,68.03
2022-10-26T03:57:03.003Z,66.77
2022-10-26T03:59:31.031Z,69.17
2022-10-26T04:01:59.055Z,67.87
2022-10-26T04:04:27.326Z,69.83
2022-10-26T04:06:55.404Z,69.80
2022-10-26T04:09:23.627Z,70.57
2022-10-26T04:11:51.604Z,70.37
2022-10-26T04:14:20.958Z,70.13
2022-10-26T04:16:48.983Z,71.60
2022-10-26T04:19:17.467Z,71.67
2022-10-26T04:21:45.463Z,71.53
2022-10-26T04:24:13.680Z,72.00
2022-10-26T04:26:41.613Z,70.53
2022-10-26T04:29:10.147Z,72.63
2022-10-26T04:31:39.512Z,73.67
2022-10-26T04:34:07.463Z,73.50
2022-10-26T04:36:35.727Z,72.37
2022-10-26T04:39:03.844Z,72.83
2022-10-26T04:41:32.173Z,75.43
2022-10-26T04:44:00.241Z,76.33
2022-10-26T04:46:28.403Z,84.27
2022-10-26T04:48:57.717Z,82.50
2022-10-26T04:51:25.690Z,77.77
2022-10-26T04:53:55.339Z,75.87
2022-10-26T04:56:23.356Z,72.33
2022-10-26T04:58:51.393Z,83.00
2022-10-26T05:01:19.424Z,87.00
2022-10-26T05:03:50.704Z,88.50
2022-10-26T05:06:20.301Z,85.67
2022-10-26T05:08:48.578Z,87.30
2022-10-26T05:11:16.824Z,85.93
2022-10-26T05:13:44.733Z,84.43
2022-10-26T05:16:12.689Z,83.37
2022-10-26T05:18:40.666Z,83.93
2022-10-26T05:21:08.633Z,85.50
2022-10-26T05:23:38.062Z,88.47
2022-10-26T05:26:06.340Z,88.87
2022-10-26T05:28:34.285Z,89.90
2022-10-26T05:31:02.276Z,92.80
2022-10-26T05:33:30.282Z,91.80
2022-10-26T05:35:58.262Z,92.17
2022-10-26T05:41:01.315Z,91.20
2022-10-26T05:43:30.348Z,88.60
2022-10-26T05:45:58.406Z,88.40
2022-10-26T05:48:26.389Z,86.37
2022-10-26T05:50:54.436Z,90.00
2022-10-26T05:53:22.384Z,89.80
2022-10-26T05:55:50.978Z,89.63
2022-10-26T05:58:21.157Z,89.37
2022-10-26T06:01:15.378Z,91.33
2022-10-26T06:03:56.190Z,88.17
2022-10-26T06:06:24.810Z,87.97
2022-10-26T06:08:53.298Z,88.57
2022-10-26T06:11:21.936Z,90.93
2022-10-26T06:13:54.642Z,88.73
2022-10-26T06:16:35.156Z,87.60
2022-10-26T06:19:13.519Z,87.33
2022-10-26T06:21:54.089Z,87.83
2022-10-26T06:24:29.577Z,86.03
2022-10-26T06:27:02.963Z,88.40
2022-10-26T06:29:44.492Z,85.53
2022-10-26T06:32:13.158Z,83.53
2022-10-26T06:34:46.424Z,83.13
2022-10-26T06:37:15.075Z,79.97
2022-10-26T06:39:50.017Z,81.10
2022-10-26T06:42:21.272Z,79.47
2022-10-26T06:44:51.370Z,78.60
2022-10-26T06:47:27.169Z,78.97
2022-10-26T06:50:05.006Z,77.63
2022-10-26T06:52:37.866Z,77.77
2022-10-26T06:55:06.821Z,75.13
2022-10-26T06:57:36.916Z,73.27
2022-10-26T07:00:09.482Z,72.93
2022-10-26T07:02:37.597Z,73.40
2022-10-26T07:05:10.236Z,68.97
2022-10-26T07:07:43.030Z,67.80
2022-10-26T07:10:11.726Z,66.07
2022-10-26T07:12:39.833Z,65.40
2022-10-26T07:17:46.789Z,62.17
2022-10-26T07:20:15.535Z,63.30
2022-10-26T07:22:43.891Z,61.40
2022-10-26T07:25:13.270Z,59.47
2022-10-26T07:27:41.218Z,58.70
2022-10-26T07:30:11.923Z,59.73
2022-10-26T07:32:39.949Z,60.20
2022-10-26T07:35:08.529Z,57.73
2022-10-26T07:37:36.545Z,57.53
2022-10-26T07:40:06.755Z,55.20
2022-10-26T07:42:36.647Z,53.60
2022-10-26T07:45:06.084Z,52.13
2022-10-26T07:47:35.572Z,52.00
2022-10-26T07:50:05.108Z,50.37
2022-10-26T07:52:34.940Z,48.60
2022-10-26T07:55:02.904Z,48.40
2022-10-26T07:57:30.899Z,45.70
2022-10-26T07:59:59.014Z,45.90
2022-10-26T08:02:27.062Z,43.43
2022-10-26T08:04:56.489Z,43.47
2022-10-26T08:07:25.949Z,44.37
2022-10-26T08:09:54.104Z,42.37
2022-10-26T08:12:22.333Z,42.17
2022-10-26T08:14:50.331Z,41.47
2022-10-26T08:17:18.297Z,43.03
2022-10-26T08:19:48.935Z,40.73
2022-10-26T08:22:18.375Z,40.40
2022-10-26T08:24:47.013Z,40.03
2022-10-26T08:27:15.160Z,40.87
2022-10-26T08:29:43.945Z,38.57
2022-10-26T08:32:12.013Z,39.03
2022-10-26T08:34:39.983Z,36.63
2022-10-26T08:37:08.015Z,33.43
2022-10-26T08:39:37.477Z,32.03
2022-10-26T08:42:11.889Z,32.90
2022-10-26T08:44:45.309Z,32.43
2022-10-26T08:50:00.416Z,29.57
2022-10-26T08:52:35.797Z,27.87
2022-10-26T08:55:12.059Z,28.73
2022-10-26T08:57:42.458Z,26.87
2022-10-26T09:00:15.517Z,26.27
2022-10-26T09:02:43.597Z,26.10
2022-10-26T09:05:17.192Z,25.47
2022-10-26T09:07:55.967Z,23.70
2022-10-26T09:10:41.211Z,23.10
2022-10-26T09:13:23.928Z,23.43
2022-10-26T09:16:01.208Z,21.63
2022-10-26T09:18:38.739Z,19.00
2022-10-26T09:21:14.965Z,19.07
2022-10-26T09:24:00.436Z,18.80
2022-10-26T09:26:40.215Z,17.07
2022-10-26T09:29:14.067Z,15.37
2022-10-26T09:31:43.872Z,16.20
2022-10-26T09:34:20.532Z,15.18
2022-10-26T09:36:48.649Z,14.53
2022-10-26T09:39:25.360Z,13.98
2022-10-26T09:41:59.379Z,13.88
2022-10-26T09:44:32.595Z,13.55
2022-10-26T09:47:06.712Z,12.82
2022-10-26T09:49:41.388Z,12.20
2022-10-26T09:54:42.546Z,12.73
2022-10-26T09:57:16.266Z,10.63
2022-10-26T09:59:44.596Z,11.55
2022-10-26T10:02:34.731Z,10.73
2022-10-26T10:05:03.230Z,11.07
2022-10-26T10:07:31.303Z,10.75
2022-10-26T10:10:15.853Z,10.18
2022-10-26T10:12:47.466Z,8.77
2022-10-26T10:15:20.872Z,9.13
2022-10-26T10:17:53.004Z,9.13
2022-10-26T10:20:23.785Z,9.13
2022-10-26T10:22:59.588Z,8.80
2022-10-26T10:25:36.715Z,8.73
2022-10-26T10:30:57.381Z,8.02
2022-10-26T10:33:34.927Z,8.32
2022-10-26T10:36:04.852Z,7.60
2022-10-26T10:38:39.043Z,7.88
2022-10-26T10:41:15.616Z,10.60
2022-10-26T10:43:48.371Z,7.13
2022-10-26T10:46:21.384Z,6.63
2022-10-26T10:48:52.931Z,5.40
2022-10-26T10:51:23.417Z,5.00
2022-10-26T10:53:53.391Z,5.35
2022-10-26T10:56:41.610Z,6.35
2022-10-26T10:59:29.822Z,5.88
2022-10-26T11:02:19.393Z,6.10
2022-10-26T11:05:05.779Z,6.55
2022-10-26T11:07:47.115Z,6.65
2022-10-26T11:10:18.988Z,7.28
2022-10-26T11:12:52.984Z,6.68
2022-10-26T11:15:27.013Z,6.38
2022-10-26T11:18:05.122Z,7.82
2022-10-26T11:20:36.628Z,7.07
2022-10-26T11:23:10.622Z,7.65
2022-10-26T11:25:46.136Z,6.32
2022-10-26T11:28:17.799Z,10.50
2022-10-26T11:30:51.193Z,8.60
2022-10-26T11:33:24.610Z,12.20
2022-10-26T11:35:58.930Z,10.80
2022-10-26T11:38:46.250Z,9.98
2022-10-26T11:41:31.062Z,10.05
2022-10-26T11:44:06.863Z,8.10
2022-10-26T11:46:42.134Z,8.20
2022-10-26T11:49:18.634Z,6.82
2022-10-26T11:51:53.361Z,7.05
2022-10-26T11:54:25.261Z,6.05
2022-10-26T11:56:57.070Z,7.20
2022-10-26T11:59:30.812Z,5.65
2022-10-26T12:02:07.464Z,5.43
2022-10-26T12:04:38.952Z,9.73
2022-10-26T12:07:14.483Z,6.20
2022-10-26T12:09:45.181Z,19.48
2022-10-26T12:12:22.923Z,4.63
2022-10-26T12:14:57.539Z,4.55
2022-10-26T12:17:36.006Z,5.68
2022-10-26T12:20:15.070Z,8.95
2022-10-26T12:22:43.755Z,5.20
2022-10-26T12:25:21.786Z,5.50
2022-10-26T12:27:55.477Z,4.82
2022-10-26T12:30:30.357Z,4.70
2022-10-26T12:33:01.554Z,4.20
2022-10-26T12:35:44.950Z,4.80
2022-10-26T12:38:57.902Z,5.28
2022-10-26T12:41:27.537Z,6.97
2022-10-26T12:44:26.065Z,4.97
2022-10-26T12:46:54.030Z,5.22
2022-10-26T12:49:56.388Z,4.90
2022-10-26T12:52:44.749Z,4.78
2022-10-26T12:55:42.571Z,7.75
2022-10-26T12:58:26.460Z,3.20
2022-10-26T13:01:15.862Z,3.72
2022-10-26T13:03:56.830Z,4.72
2022-10-26T13:06:46.858Z,3.75
2022-10-26T13:09:21.233Z,6.28
2022-10-26T13:11:51.087Z,5.93
2022-10-26T13:14:24.965Z,3.70
2022-10-26T13:16:53.805Z,5.00
2022-10-26T13:19:27.682Z,4.53
2022-10-26T13:22:00.055Z,3.80
2022-10-26T13:24:32.377Z,3.58
2022-10-26T13:27:40.805Z,3.25
2022-10-26T13:30:22.725Z,3.35
2022-10-26T13:32:54.210Z,3.38
2022-10-26T13:35:24.927Z,3.22
2022-10-26T13:37:55.294Z,4.38
2022-10-26T13:40:27.320Z,3.25
2022-10-26T13:42:58.563Z,4.07
2022-10-26T13:45:29.353Z,8.20
2022-10-26T13:48:02.542Z,6.45
2022-10-26T13:50:37.484Z,16.10
2022-10-26T13:53:11.299Z,8.73
2022-10-26T13:55:49.992Z,11.35
2022-10-26T13:58:40.198Z,3.15
2022-10-26T14:01:18.721Z,3.75
2022-10-26T14:03:48.394Z,3.67
2022-10-26T14:06:21.467Z,3.40
2022-10-26T14:08:51.743Z,3.47
2022-10-26T14:11:23.526Z,3.80
2022-10-26T14:13:52.891Z,3.20
2022-10-26T14:16:22.641Z,3.45
2022-10-26T14:18:50.889Z,3.88
2022-10-26T14:21:21.626Z,3.72
2022-10-26T14:23:52.392Z,3.83
2022-10-26T14:26:24.650Z,3.53
2022-10-26T14:28:54.654Z,3.03
2022-10-26T14:31:25.404Z,4.20
2022-10-26T14:33:54.758Z,5.38
2022-10-26T14:36:27.032Z,5.90
2022-10-26T14:39:00.121Z,4.60
2022-10-26T14:41:30.610Z,3.30
2022-10-26T14:44:00.807Z,3.78
2022-10-26T14:46:33.514Z,3.08
2022-10-26T14:49:03.209Z,4.28
2022-10-26T14:51:32.292Z,5.85
2022-10-26T14:54:01.842Z,3.83
2022-10-26T14:56:39.685Z,3.67
2022-10-26T14:59:13.344Z,9.20
2022-10-26T15:01:53.664Z,5.38
2022-10-26T15:04:33.914Z,7.28
2022-10-26T15:07:17.955Z,9.73
2022-10-26T15:09:47.270Z,6.18
2022-10-26T15:12:28.682Z,9.10
2022-10-26T15:14:57.548Z,10.30
2022-10-26T15:17:32.063Z,7.22
2022-10-26T15:20:05.432Z,5.60
2022-10-26T15:22:34.627Z,4.90
2022-10-26T15:25:05.362Z,7.18
2022-10-26T15:27:34.894Z,9.93
2022-10-26T15:30:22.632Z,7.18
2022-10-26T15:32:51.362Z,8.43
2022-10-26T15:35:30.162Z,17.55
2022-10-26T15:38:00.763Z,5.85
2022-10-26T15:40:30.704Z,7.80
2022-10-26T15:43:02.160Z,7.70
2022-10-26T15:45:33.268Z,5.28
2022-10-26T15:48:19.367Z,4.82
2022-10-26T15:50:47.425Z,7.45
2022-10-26T15:53:20.612Z,8.90
2022-10-26T15:55:49.130Z,5.78
2022-10-26T15:58:18.906Z,5.93
2022-10-26T16:00:47.025Z,4.88
2022-10-26T16:03:18.056Z,6.70
2022-10-26T16:05:46.139Z,6.35
2022-10-26T16:08:18.055Z,7.47
2022-10-26T16:10:48.456Z,6.13
2022-10-26T16:13:18.623Z,4.90
2022-10-26T16:15:46.724Z,6.38
2022-10-26T16:18:14.945Z,6.85
2022-10-26T16:20:45.917Z,5.63
2022-10-26T16:23:13.965Z,6.05
2022-10-26T16:25:44.160Z,5.85
2022-10-26T16:28:13.618Z,5.40
2022-10-26T16:30:43.744Z,7.25
2022-10-26T16:33:11.762Z,8.35
2022-10-26T16:35:39.749Z,11.40
2022-10-26T16:38:07.917Z,15.50
2022-10-26T16:40:35.885Z,12.93
2022-10-26T16:43:03.896Z,17.60
2022-10-26T16:45:31.875Z,13.83
2022-10-26T16:48:05.772Z,16.07
2022-10-26T16:50:36.302Z,9.50
2022-10-26T16:53:04.664Z,8.30
2022-10-26T16:55:33.031Z,7.28
2022-10-26T16:58:02.233Z,10.53
2022-10-26T17:00:30.419Z,10.13
2022-10-26T17:03:00.132Z,7.90
2022-10-26T17:05:29.766Z,14.17
2022-10-26T17:07:57.697Z,8.60
2022-10-26T17:10:27.974Z,8.20
2022-10-26T17:12:57.301Z,9.87
2022-10-26T17:15:28.902Z,7.87
2022-10-26T17:17:57.319Z,14.77
2022-10-26T17:20:25.308Z,7.77
2022-10-26T17:22:54.623Z,7.73
2022-10-26T17:25:22.824Z,8.33
2022-10-26T17:27:50.812Z,9.00
2022-10-26T17:30:18.948Z,9.53
2022-10-26T17:32:47.010Z,9.77
2022-10-26T17:35:16.958Z,11.47
2022-10-26T17:37:45.020Z,11.60
2022-10-26T17:40:14.613Z,14.30
2022-10-26T17:42:42.625Z,13.70
2022-10-26T17:45:11.148Z,13.60
2022-10-26T17:47:39.264Z,14.03
2022-10-26T17:50:08.344Z,13.87
2022-10-26T17:52:36.467Z,15.30
2022-10-26T17:55:04.667Z,15.37
2022-10-26T17:57:34.679Z,15.57
2022-10-26T18:00:03.921Z,17.50
2022-10-26T18:02:40.480Z,15.77
2022-10-26T18:05:09.649Z,17.03
2022-10-26T18:07:37.678Z,15.37
2022-10-26T18:10:13.954Z,17.37
2022-10-26T18:12:55.632Z,19.37
2022-10-26T18:15:24.875Z,19.63
2022-10-26T18:17:56.847Z,19.70
2022-10-26T18:20:27.946Z,19.13
2022-10-26T18:22:56.707Z,19.57
2022-10-26T18:25:24.923Z,18.23
2022-10-26T18:27:53.724Z,19.33
2022-10-26T18:30:24.960Z,21.13
2022-10-26T18:32:53.930Z,21.03
2022-10-26T18:35:22.383Z,20.00
2022-10-26T18:37:51.550Z,20.80
2022-10-26T18:40:20.206Z,22.77
2022-10-26T18:42:49.314Z,25.27
2022-10-26T18:45:17.489Z,25.47
2022-10-26T18:47:46.802Z,25.73
2022-10-26T18:50:15.036Z,25.47
2022-10-26T18:52:43.061Z,26.37
2022-10-26T18:55:11.245Z,27.90
2022-10-26T18:57:39.310Z,27.97
2022-10-26T19:00:08.480Z,27.00
2022-10-26T19:02:36.599Z,27.43
2022-10-26T19:05:06.746Z,25.37
2022-10-26T19:07:34.764Z,25.13
2022-10-26T19:10:02.688Z,26.13
2022-10-26T19:12:30.706Z,24.77
2022-10-26T19:14:58.799Z,25.20
2022-10-26T19:17:27.254Z,25.43
2022-10-26T19:19:55.220Z,23.67
2022-10-26T19:22:24.615Z,22.43
2022-10-26T19:24:52.618Z,23.40
2022-10-26T19:27:20.577Z,27.87
2022-10-26T19:29:48.575Z,26.47
2022-10-26T19:32:16.607Z,21.90
2022-10-26T19:34:44.669Z,21.27
2022-10-26T19:37:13.493Z,20.47
2022-10-26T19:39:43.420Z,20.50
2022-10-26T19:42:11.386Z,20.40
2022-10-26T19:44:39.514Z,20.83
2022-10-26T19:47:07.785Z,20.93
2022-10-26T19:49:35.871Z,22.03
2022-10-26T19:52:03.859Z,22.33
2022-10-26T19:54:31.791Z,20.63
2022-10-26T19:57:01.165Z,21.40
2022-10-26T19:59:29.178Z,22.27
2022-10-26T20:01:58.198Z,23.20
2022-10-26T20:04:26.187Z,23.27
2022-10-26T20:06:54.236Z,22.97
2022-10-26T20:09:22.186Z,22.93
2022-10-26T20:11:50.564Z,24.37
2022-10-26T20:14:19.927Z,25.70
2022-10-26T20:16:48.014Z,24.40
2022-10-26T20:19:15.905Z,24.43
2022-10-26T20:21:43.879Z,24.73
2022-10-26T20:24:12.008Z,24.40
2022-10-26T20:26:40.170Z,25.67
2022-10-26T20:29:08.105Z,26.33
2022-10-26T20:31:37.473Z,25.93
2022-10-26T20:34:05.667Z,26.37
2022-10-26T20:36:33.654Z,26.07
2022-10-26T20:39:02.220Z,25.10
2022-10-26T20:41:30.637Z,24.63
2022-10-26T20:43:59.370Z,24.87
2022-10-26T20:46:28.811Z,26.43
2022-10-26T20:48:58.819Z,27.43
2022-10-26T20:51:40.013Z,28.90
2022-10-26T20:54:19.097Z,29.10
2022-10-26T20:56:49.516Z,29.60
2022-10-26T20:59:23.419Z,30.87
2022-10-26T21:01:51.572Z,33.77
2022-10-26T21:04:20.947Z,33.40
2022-10-26T21:06:48.977Z,33.30
2022-10-26T21:09:16.921Z,33.77
2022-10-26T21:11:45.526Z,34.53
2022-10-26T21:14:13.599Z,33.97
2022-10-26T21:16:41.537Z,34.30
2022-10-26T21:19:09.507Z,35.90
2022-10-26T21:21:38.901Z,35.00
2022-10-26T21:24:07.724Z,35.50
2022-10-26T21:26:35.653Z,36.03
2022-10-26T21:29:03.695Z,36.93
2022-10-26T21:31:31.627Z,35.90
2022-10-26T21:33:59.665Z,38.07
2022-10-26T21:36:27.743Z,38.80
2022-10-26T21:38:57.283Z,40.67
2022-10-26T21:44:08.405Z,41.17
2022-10-26T21:46:38.564Z,40.97
2022-10-26T21:49:06.574Z,43.50
2022-10-26T21:51:35.056Z,43.57
2022-10-26T21:54:04.714Z,44.03
2022-10-26T21:56:32.711Z,44.77
2022-10-26T21:59:01.616Z,43.87
2022-10-26T22:01:29.723Z,45.53
2022-10-26T22:03:57.833Z,47.13
2022-10-26T22:06:26.096Z,46.97
2022-10-26T22:08:54.442Z,48.43
2022-10-26T22:11:25.655Z,46.10
2022-10-26T22:13:54.245Z,46.73
2022-10-26T22:16:24.547Z,47.47
2022-10-26T22:18:54.439Z,48.10
2022-10-26T22:21:25.096Z,52.20
2022-10-26T22:23:53.883Z,61.90
2022-10-26T22:26:24.968Z,92.10
2022-10-26T22:28:54.776Z,81.50
2022-10-26T22:31:25.552Z,58.17
2022-10-26T22:33:54.025Z,55.50
2022-10-26T22:36:22.497Z,53.33
2022-10-26T22:38:50.884Z,53.13
2022-10-26T22:41:20.063Z,53.23
2022-10-26T22:43:50.766Z,54.63
2022-10-26T22:46:21.195Z,55.40
2022-10-26T22:48:49.345Z,56.50
2022-10-26T22:51:19.792Z,57.43
2022-10-26T22:53:51.899Z,56.13
2022-10-26T22:56:20.289Z,58.00
2022-10-26T22:58:50.310Z,57.43
2022-10-26T23:01:20.516Z,59.63
2022-10-26T23:03:48.579Z,60.67
2022-10-26T23:06:19.455Z,61.87
2022-10-26T23:08:47.423Z,61.77
2022-10-26T23:11:18.014Z,64.60
2022-10-26T23:13:46.025Z,64.73
2022-10-26T23:16:17.966Z,65.93
2022-10-26T23:18:46.113Z,66.03
2022-10-26T23:21:15.138Z,64.53
2022-10-26T23:23:43.357Z,64.63
2022-10-26T23:26:13.341Z,62.77
2022-10-26T23:28:42.935Z,63.00
2022-10-26T23:31:16.499Z,63.03
2022-10-26T23:33:44.922Z,60.77
2022-10-26T23:36:13.127Z,61.27
2022-10-26T23:38:41.331Z,61.33
2022-10-26T23:41:12.108Z,61.80
2022-10-26T23:43:41.671Z,59.87
2022-10-26T23:46:09.677Z,59.63
2022-10-26T23:48:39.051Z,62.37
2022-10-26T23:51:07.342Z,60.83
2022-10-26T23:53:35.598Z,60.97
2022-10-26T23:56:03.982Z,59.63
2022-10-26T23:58:32.110Z,59.20
